ADDS METAR Data INFO
IDs: Format: Raw Decoded Include TAF

Data at: 1951 UTC 14 Aug 2018

KHJH 141935Z AUTO 06010KT 10SM BKN023 OVC028 25/20 A2988 RMK AO2 T02520199
KHJH 141915Z AUTO 05007KT 10SM BKN025 OVC029 25/20 A2989 RMK AO2 T02500199
KHJH 141855Z AUTO 05007KT 10SM BKN024 OVC042 23/20 A2990 RMK AO2 T02330204
KHJH 141835Z AUTO 07008KT 10SM SCT015 BKN040 OVC090 23/21 A2991 RMK AO2 T02280212
KHJH 141815Z AUTO 03006KT 10SM SCT015 SCT060 OVC090 23/22 A2991 RMK AO2 T02250216
KHJH 141755Z AUTO 01004KT 10SM OVC060 22/21 A2991 RMK AO2 P0002 60039 T02200214 10220 20197
KHJH 141735Z AUTO 01007KT 7SM OVC060 21/20 A2992 RMK AO2 P0002 T02080203
KHJH 141715Z AUTO 03008KT 3SM DZ SCT018 SCT048 OVC050 21/20 A2993 RMK AO2 P0001 T02050200
KHJH 141655Z AUTO 07008KT 2 1/2SM -RA OVC047 20/20 A2994 RMK AO2 P0004 T02020196
KHJH 141635Z AUTO 10009G16KT 3SM RA SCT007 SCT032 OVC042 20/19 A2994 RMK AO2 P0003 T02000194
KHJH 141615Z AUTO 09013G18KT 2 1/2SM RA BKN005 BKN026 OVC038 20/20 A2994 RMK AO2 P0002 T02010196
KHJH 141555Z AUTO 08013G21KT 2 1/2SM -RA BKN005 OVC011 21/20 A2994 RMK AO2 P0016 T02080203
KHJH 141535Z AUTO 07011G16KT 4SM RA BKN005 OVC011 22/21 A2993 RMK AO2 LTG DSNT S P0004 T02150210
KHJH 141515Z AUTO 07008KT 3SM DZ BKN005 OVC011 22/21 A2993 RMK AO2 P0002 T02160211
KHJH 141455Z AUTO 08008KT 2 1/2SM DZ BKN007 BKN011 OVC037 22/21 A2993 RMK AO2 P0009 60017 T02150210
KHJH 141435Z AUTO 08007KT 3SM RA BKN007 OVC013 22/21 A2993 RMK AO2 P0003 T02150210
KHJH 141415Z AUTO 07005KT 7SM -RA SCT007 BKN014 OVC050 22/21 A2992 RMK AO2 T02150210
KHJH 141355Z AUTO 07006KT 5SM RA BKN007 BKN011 OVC050 21/21 A2993 RMK AO2 P0006 T02140209
KHJH 141335Z AUTO 08007KT 5SM RA OVC007 21/21 A2993 RMK AO2 P0005 T02120207
KHJH 141315Z AUTO 07007KT 5SM -RA BKN005 OVC010 21/21 A2993 RMK AO2 P0001 T02120207
KHJH 141255Z AUTO 07006KT 7SM -RA OVC005 21/21 A2993 RMK AO2 P0002 T02120208
KHJH 141235Z AUTO 07007KT 7SM -RA OVC003 21/21 A2992 RMK AO2 P0001 T02110207
KHJH 141215Z AUTO 06007KT 5SM -DZ OVC003 21/21 A2992 RMK AO2 P0001 T02110207
KHJH 141155Z AUTO 05005KT 5SM +DZ OVC003 21/21 A2992 RMK AO2 P0002 60041 70063 T02110207 10213 20210
KHJH 141135Z AUTO 06005KT 5SM -RA BKN003 OVC009 21/21 A2992 RMK AO2 P0001 T02110207
KHJH 141115Z AUTO 05004KT 4SM -RA OVC003 21/21 A2992 RMK AO2 T02110207
KHJH 141055Z AUTO 06006KT 3SM +DZ OVC003 21/21 A2993 RMK AO2 P0007 T02100206
KHJH 141035Z AUTO 06005KT 5SM RA BKN005 OVC008 21/21 A2993 RMK AO2 P0004 T02110207
KHJH 141015Z AUTO 06005KT 5SM RA BKN005 BKN044 OVC100 21/21 A2993 RMK AO2 P0002 T02100206
KHJH 140955Z AUTO 07004KT 4SM RA OVC003 21/21 A2993 RMK AO2 P0008 T02110207
KHJH 140935Z AUTO 07004KT 5SM RA OVC003 21/21 A2993 RMK AO2 LTG DSNT N P0003 T02120208
KHJH 140915Z AUTO 07004KT 5SM RA OVC003 21/21 A2993 RMK AO2 T02120208
KHJH 140855Z AUTO 07003KT 5SM RA OVC003 21/21 A2994 RMK AO2 P0004 60024 T02130208
KHJH 140835Z AUTO 07003KT 5SM -RA OVC003 21/21 A2995 RMK AO2 P0003 T02120207
KHJH 140815Z AUTO 08003KT 5SM RA BKN005 OVC008 21/21 A2995 RMK AO2 P0001 T02120207
KHJH 140755Z AUTO 00000KT 5SM -RA OVC005 21/21 A2995 RMK AO2 P0015 T02120207
KHJH 140735Z AUTO 00000KT 4SM RA OVC005 21/21 A2995 RMK AO2 P0010 T02110206
KHJH 140715Z AUTO 00000KT 5SM RA SCT003 BKN007 OVC075 21/21 A2996 RMK AO2 P0003 T02120207
KHJH 140655Z AUTO 00000KT 5SM RA BKN009 BKN018 OVC100 21/21 A2996 RMK AO2 LTG DSNT SW P0005 T02120207
KHJH 140635Z AUTO 00000KT 7SM RA SCT009 SCT030 OVC100 21/21 A2996 RMK AO2 P0003 T02110206
KHJH 140615Z AUTO 00000KT 7SM -RA SCT011 SCT041 OVC090 21/21 A2996 RMK AO2 P0001 T02110206
KHJH 140555Z AUTO 00000KT 10SM RA SCT017 SCT050 BKN100 21/21 A2997 RMK AO2 P0003 60015 T02120207 10225 20211 403110184
KHJH 140535Z AUTO 09003KT 10SM -RA SCT020 SCT070 BKN100 21/21 A2998 RMK AO2 P0003 T02110206
KHJH 140515Z AUTO 08003KT 7SM RA BKN090 OVC120 21/21 A2998 RMK AO2 P0002 T02110206
KHJH 140455Z AUTO 00000KT 10SM RA SCT100 BKN120 21/21 A2998 RMK AO2 P0003 T02120207
KHJH 140435Z AUTO 00000KT 10SM RA SCT120 21/21 A2998 RMK AO2 P0002 T02120207
KHJH 140415Z AUTO 00000KT 10SM -RA BKN120 21/21 A2997 RMK AO2 P0001 T02120207
KHJH 140355Z AUTO 00000KT 10SM -RA SCT120 21/21 A2997 RMK AO2 P0003 T02120207
KHJH 140335Z AUTO 00000KT 10SM RA SCT075 SCT090 SCT120 21/21 A2998 RMK AO2 P0002 T02130208
KHJH 140315Z AUTO 00000KT 10SM -RA SCT075 SCT090 SCT120 21/21 A2999 RMK AO2 P0001 T02140209
KHJH 140255Z AUTO 00000KT 10SM -RA SCT120 22/21 A2999 RMK AO2 P0002 60006 T02150210
KHJH 140235Z AUTO 00000KT 10SM RA SCT120 22/21 A2999 RMK AO2 P0001 T02150210
KHJH 140215Z AUTO 00000KT 10SM RA SCT120 22/21 A2999 RMK AO2 P0001 T02150210
KHJH 140155Z AUTO 00000KT 10SM -RA SCT120 22/21 A2999 RMK AO2 P0003 T02150210
KHJH 140135Z AUTO 00000KT 10SM -RA SCT120 22/21 A2999 RMK AO2 LTG DSNT SW P0002 T02160210
KHJH 140115Z AUTO 00000KT 10SM RA SCT120 22/21 A2998 RMK AO2 P0001 T02160210
KHJH 140055Z AUTO 00000KT 10SM -RA SCT050 SCT110 22/21 A2998 RMK AO2 P0001 T02160210
KHJH 140035Z AUTO 00000KT 10SM -DZ SCT046 SCT070 SCT095 22/21 A2998 RMK AO2 P0001 T02170210
KHJH 140015Z AUTO 00000KT 10SM -RA BKN095 22/21 A2999 RMK AO2 P0001 T02200211
KHJH 132355Z AUTO 00000KT 7SM -RA SCT007 OVC095 23/21 A2999 RMK AO2 P0006 60006 T02250213 10311 20225
KHJH 132335Z AUTO 20003KT 10SM -RA SCT009 SCT075 OVC085 23/22 A2999 RMK AO2 P0004 T02270215
KHJH 132315Z AUTO 00000KT 7SM TSRA SCT011 SCT040 OVC085 23/22 A2999 RMK AO2 LTG DSNT E P0002 T02300215
KHJH 132255Z AUTO 00000KT 10SM -RA SCT013 BKN055 OVC075 24/22 A3000 RMK AO2 LTG DSNT SE T02370215
KHJH 132235Z AUTO 21003KT 10SM VCTS SCT050 25/21 A2999 RMK AO2 LTG DSNT E AND S T02460210
KHJH 132215Z AUTO 00000KT 10SM -VCTSRA SCT037 SCT045 BKN075 25/22 A2998 RMK AO2 LTG DSNT NE T02450215
KHJH 132155Z AUTO 00000KT 10SM VCTS SCT060 SCT075 25/22 A2998 RMK AO2 LTG DSNT NE E AND SW T02450215
KHJH 132135Z AUTO 00000KT 10SM -DZ SCT110 24/21 A2998 RMK AO2 LTG DSNT N E AND S T02390213
KHJH 132115Z AUTO 20006KT 10SM TSDZ SCT060 SCT080 OVC110 24/22 A2997 RMK AO2 LTG DSNT NE AND E T02350215
KHJH 132055Z AUTO 18009G15KT 10SM -RA SCT049 SCT075 BKN100 26/21 A2999 RMK AO2 LTG DSNT N NE AND SW T02600210
KHJH 132035Z AUTO 19005KT 10SM TS CLR 29/19 A2999 RMK AO2 LTG DSNT NE THRU SW T02850190
KHJH 132015Z AUTO 18004KT 10SM CLR 29/19 A2998 RMK AO2 LTG DSNT SE THRU SW T02850194
KHJH 131955Z AUTO 18006KT 10SM CLR 29/19 A2999 RMK AO2 LTG DSNT S T02870194
KHJH 131935Z AUTO 17006KT 10SM CLR 29/20 A2999 RMK AO2 LTG DSNT S T02890195
KHJH 131915Z AUTO 17008KT 10SM SCT120 29/20 A2999 RMK AO2 LTG DSNT S T02940197
KHJH 131855Z AUTO 16007KT 10SM SCT047 SCT060 30/19 A2999 RMK AO2 LTG DSNT S T03030190
KHJH 131835Z AUTO 17007KT 10SM SCT046 BKN050 31/20 A3000 RMK AO2 T03070195
KHJH 131815Z AUTO 17008KT 10SM SCT046 BKN060 BKN065 31/19 A3001 RMK AO2 T03080190
KHJH 131755Z AUTO 15007KT 10SM BKN047 BKN060 31/19 A3001 RMK AO2 T03090188 10309 20185
KHJH 131735Z AUTO 16005KT 10SM BKN045 OVC050 30/19 A3002 RMK AO2 T02950186
KHJH 131715Z AUTO 20006KT 10SM SCT043 BKN050 BKN060 30/19 A3002 RMK AO2 T03020192
KHJH 131655Z AUTO 15007KT 10SM SCT040 30/19 A3002 RMK AO2 T03040190
KHJH 131635Z AUTO 16003KT 10SM CLR 29/20 A3002 RMK AO2 T02910195
KHJH 131615Z AUTO 18006KT 10SM CLR 30/19 A3002 RMK AO2 T02980194
KHJH 131555Z AUTO 14003KT 10SM CLR 29/19 A3002 RMK AO2 T02940193
KHJH 131535Z AUTO 14003KT 10SM CLR 29/19 A3003 RMK AO2 T02920190
KHJH 131515Z AUTO 09004KT 10SM CLR 29/19 A3003 RMK AO2 T02860190
KHJH 131455Z AUTO 09003KT 10SM CLR 27/20 A3003 RMK AO2 T02740196
KHJH 131435Z AUTO 00000KT 10SM CLR 27/20 A3003 RMK AO2 T02670195
KHJH 131415Z AUTO 15003KT 10SM CLR 26/19 A3004 RMK AO2 T02560192
KHJH 131355Z AUTO 18004KT 10SM CLR 25/19 A3005 RMK AO2 T02460190
KHJH 131335Z AUTO 20003KT 10SM CLR 24/19 A3005 RMK AO2 T02360188
KHJH 131315Z AUTO 00000KT 10SM CLR 22/18 A3005 RMK AO2 T02230183
KHJH 131255Z AUTO 00000KT 10SM CLR 21/18 A3005 RMK AO2 LTG DSNT S T02070177
KHJH 131235Z AUTO 00000KT 10SM CLR 20/18 A3004 RMK AO2 T01970175
KHJH 131215Z AUTO 00000KT 10SM CLR 19/17 A3004 RMK AO2 T01880170
KHJH 131155Z AUTO 00000KT 10SM CLR 19/17 A3004 RMK AO2 T01900169 10212 20184
KHJH 131135Z AUTO 00000KT 10SM CLR 19/17 A3004 RMK AO2 T01880168
KHJH 131115Z AUTO 00000KT 10SM CLR 19/17 A3004 RMK AO2 T01930170
KHJH 131055Z AUTO 00000KT 10SM CLR 19/17 A3005 RMK AO2 T01870168
KHJH 131035Z AUTO 00000KT 10SM CLR 19/17 A3005 RMK AO2 T01890171
KHJH 131015Z AUTO 00000KT 10SM CLR 19/17 A3005 RMK AO2 T01910172
KHJH 130955Z AUTO 00000KT 10SM CLR 20/17 A3005 RMK AO2 T01950171
KHJH 130935Z AUTO 00000KT 10SM CLR 20/17 A3005 RMK AO2 T01970172
KHJH 130915Z AUTO 00000KT 10SM CLR 20/17 A3005 RMK AO2 T01990170
KHJH 130855Z AUTO 00000KT 10SM CLR 21/17 A3005 RMK AO2 T02050170
KHJH 130835Z AUTO 15003KT 10SM CLR 21/17 A3005 RMK AO2 T02060173
KHJH 130815Z AUTO 14004KT 10SM CLR 20/17 A3005 RMK AO2 T02000173
KHJH 130755Z AUTO 00000KT 10SM CLR 20/17 A3005 RMK AO2 T02010170